Tabellarische Übersicht vom Montag, den 22.04.2019

Oder anderes Datum wählen:






max 26,2°C 89,0% 9,7°C 1014,5hPa 26,0°C 0,0km/h (0Bft) 0,0km/h 0° (N) ∑0,0l/m² 92,000klx ∑0,0min
min 8,0°C 23,0% 2,8°C 1004,6hPa 8,0°C 0,0km/h (0Bft) 0,0km/h 0° (N) ∑0,0l/m² 0,000klx ∑0,0min
Ø 17,6°C 54,0% 5,7°C 1009,8hPa 18,0°C 0,0km/h (0Bft) 0,0km/h 0° (N) ∑0,0l/m² 44,000klx ∑0,0min
Zeit Temperatur Luftfeuchte Taupunkt Luftdruck Windchill Windböen Windgeschwindigkeit Windrichtung Regen Helligkeit Regenzeit
20:30 20,6°C 33,3% 3,9°C 1004,7hPa 20,6°C 0,0km/h (0Bft) 0,0km/h 0,0l/m² 0,967klx 0,0min
20:25 20,8°C 33,0% 3,9°C 1004,7hPa 20,8°C 0,0km/h (0Bft) 0,0km/h 0,0l/m² 1,294klx 0,0min
20:20 21,0°C 32,5% 3,9°C 1004,7hPa 21,0°C 0,0km/h (0Bft) 0,0km/h 0,0l/m² 1,654klx 0,0min
20:15 21,2°C 31,6% 3,7°C 1004,6hPa 21,2°C 0,0km/h (0Bft) 0,0km/h 0,0l/m² 2,037klx 0,0min
20:10 21,2°C 32,1% 3,9°C 1004,6hPa 21,2°C 0,0km/h (0Bft) 0,0km/h 0,0l/m² 2,423klx 0,0min
20:05 21,5°C 31,0% 3,7°C 1004,6hPa 21,5°C 0,0km/h (0Bft) 0,0km/h 0,0l/m² 2,821klx 0,0min
20:00 21,7°C 30,4% 3,5°C 1004,6hPa 21,7°C 0,0km/h (0Bft) 0,0km/h 0,0l/m² 3,358klx 0,0min
19:55 21,9°C 29,8% 3,4°C 1004,6hPa 21,9°C 0,0km/h (0Bft) 0,0km/h 0,0l/m² 3,931klx 0,0min
19:50 22,0°C 29,0% 3,2°C 1004,6hPa 22,0°C 0,0km/h (0Bft) 0,0km/h 0,0l/m² 4,452klx 0,0min
19:45 22,2°C 28,3% 3,0°C 1004,6hPa 22,2°C 0,0km/h (0Bft) 0,0km/h 0,0l/m² 4,957klx 0,0min
19:40 22,4°C 28,0% 3,0°C 1004,6hPa 22,4°C 0,0km/h (0Bft) 0,0km/h 0,0l/m² 5,614klx 0,0min
19:35 22,6°C 27,5% 2,8°C 1004,6hPa 22,6°C 0,0km/h (0Bft) 0,0km/h 0,0l/m² 6,001klx 0,0min
19:30 22,7°C 27,2% 2,8°C 1004,7hPa 22,7°C 0,0km/h (0Bft) 0,0km/h 0,0l/m² 7,373klx 0,0min
19:25 22,8°C 27,6% 3,1°C 1004,7hPa 22,8°C 0,0km/h (0Bft) 0,0km/h 0,0l/m² 8,334klx 0,0min
19:20 22,8°C 27,9% 3,3°C 1004,7hPa 22,8°C 0,0km/h (0Bft) 0,0km/h 0,0l/m² 9,372klx 0,0min
19:15 23,0°C 27,5% 3,2°C 1004,7hPa 23,0°C 0,0km/h (0Bft) 0,0km/h 0,0l/m² 10,502klx 0,0min
19:10 23,1°C 27,3% 3,3°C 1004,7hPa 23,1°C 0,0km/h (0Bft) 0,0km/h 0,0l/m² 11,541klx 0,0min
19:05 23,2°C 27,6% 3,5°C 1004,7hPa 23,2°C 0,0km/h (0Bft) 0,0km/h 0,0l/m² 12,706klx 0,0min
19:00 23,3°C 27,2% 3,3°C 1004,7hPa 23,3°C 0,0km/h (0Bft) 0,0km/h 0,0l/m² 13,866klx 0,0min
18:55 23,4°C 27,1% 3,4°C 1004,8hPa 23,4°C 0,0km/h (0Bft) 0,0km/h 0,0l/m² 15,007klx 0,0min
18:50 23,6°C 26,8% 3,3°C 1004,8hPa 23,6°C 0,0km/h (0Bft) 0,0km/h 0,0l/m² 16,158klx 0,0min
18:45 23,9°C 27,1% 3,8°C 1004,9hPa 23,9°C 0,0km/h (0Bft) 0,0km/h 0,0l/m² 17,473klx 0,0min
18:40 24,1°C 26,9% 3,9°C 1004,9hPa 24,1°C 0,0km/h (0Bft) 0,0km/h 0,0l/m² 19,338klx 0,0min
18:35 24,2°C 27,4% 4,2°C 1004,9hPa 24,2°C 0,0km/h (0Bft) 0,0km/h 0,0l/m² 20,853klx 0,0min
18:30 24,2°C 27,1% 4,1°C 1004,9hPa 24,2°C 0,0km/h (0Bft) 0,0km/h 0,0l/m² 21,847klx 0,0min
18:25 24,2°C 26,8% 3,9°C 1004,9hPa 24,2°C 0,0km/h (0Bft) 0,0km/h 0,0l/m² 23,304klx 0,0min
18:20 24,2°C 26,8% 3,9°C 1004,9hPa 24,2°C 0,0km/h (0Bft) 0,0km/h 0,0l/m² 24,574klx 0,0min
18:15 24,3°C 26,7% 3,9°C 1004,9hPa 24,3°C 0,0km/h (0Bft) 0,0km/h 0,0l/m² 25,405klx 0,0min
18:10 24,7°C 26,2% 4,0°C 1005,0hPa 24,7°C 0,0km/h (0Bft) 0,0km/h 0,0l/m² 26,963klx 0,0min
18:05 24,8°C 24,6% 3,2°C 1005,0hPa 24,8°C 0,0km/h (0Bft) 0,0km/h 0,0l/m² 29,065klx 0,0min
18:00 25,0°C 24,3% 3,2°C 1005,0hPa 25,0°C 0,0km/h (0Bft) 0,0km/h 0,0l/m² 31,095klx 0,0min
17:55 25,1°C 25,0% 3,7°C 1005,1hPa 25,1°C 0,0km/h (0Bft) 0,0km/h 0,0l/m² 33,015klx 0,0min
17:50 25,0°C 25,2% 3,7°C 1005,1hPa 25,0°C 0,0km/h (0Bft) 0,0km/h 0,0l/m² 35,243klx 0,0min
17:45 25,0°C 25,0% 3,6°C 1005,1hPa 25,0°C 0,0km/h (0Bft) 0,0km/h 0,0l/m² 37,744klx 0,0min
17:40 25,0°C 25,8% 4,0°C 1005,2hPa 25,0°C 0,0km/h (0Bft) 0,0km/h 0,0l/m² 39,010klx 0,0min
17:35 25,0°C 26,0% 4,2°C 1005,1hPa 25,0°C 0,0km/h (0Bft) 0,0km/h 0,0l/m² 40,172klx 0,0min
17:30 24,9°C 26,2% 4,2°C 1005,2hPa 24,9°C 0,0km/h (0Bft) 0,0km/h 0,0l/m² 41,940klx 0,0min
17:25 25,1°C 26,1% 4,3°C 1005,3hPa 25,1°C 0,0km/h (0Bft) 0,0km/h 0,0l/m² 46,711klx 0,0min
17:20 25,3°C 25,5% 4,1°C 1005,3hPa 25,3°C 0,0km/h (0Bft) 0,0km/h 0,0l/m² 46,810klx 0,0min
17:15 25,3°C 26,4% 4,7°C 1005,2hPa 25,3°C 0,0km/h (0Bft) 0,0km/h 0,0l/m² 48,742klx 0,0min
17:10 25,3°C 26,7% 4,8°C 1005,3hPa 25,3°C 0,0km/h (0Bft) 0,0km/h 0,0l/m² 48,823klx 0,0min
17:05 25,6°C 27,3% 5,3°C 1005,4hPa 25,6°C 0,0km/h (0Bft) 0,0km/h 0,0l/m² 48,935klx 0,0min
17:00 25,5°C 27,4% 5,3°C 1005,4hPa 25,5°C 0,0km/h (0Bft) 0,0km/h 0,0l/m² 49,997klx 0,0min
16:55 25,4°C 26,7% 4,9°C 1005,4hPa 25,4°C 0,0km/h (0Bft) 0,0km/h 0,0l/m² 53,267klx 0,0min
16:50 25,7°C 26,2% 4,8°C 1005,5hPa 25,7°C 0,0km/h (0Bft) 0,0km/h 0,0l/m² 53,583klx 0,0min
16:45 25,7°C 26,1% 4,8°C 1005,6hPa 25,7°C 0,0km/h (0Bft) 0,0km/h 0,0l/m² 55,429klx 0,0min
16:40 25,8°C 25,9% 4,8°C 1005,7hPa 25,8°C 0,0km/h (0Bft) 0,0km/h 0,0l/m² 57,498klx 0,0min
16:35 25,9°C 25,2% 4,4°C 1005,7hPa 25,9°C 0,0km/h (0Bft) 0,0km/h 0,0l/m² 59,233klx 0,0min
16:30 26,0°C 24,9% 4,4°C 1005,8hPa 26,0°C 0,0km/h (0Bft) 0,0km/h 0,0l/m² 57,707klx 0,0min
16:25 26,0°C 25,3% 4,6°C 1005,9hPa 26,0°C 0,0km/h (0Bft) 0,0km/h 0,0l/m² 60,019klx 0,0min
16:20 26,0°C 25,1% 4,5°C 1005,9hPa 26,0°C 0,0km/h (0Bft) 0,0km/h 0,0l/m² 60,206klx 0,0min
16:15 26,2°C 25,3% 4,8°C 1006,0hPa 26,2°C 0,0km/h (0Bft) 0,0km/h 0,0l/m² 62,542klx 0,0min
16:10 26,0°C 25,8% 4,9°C 1006,1hPa 26,0°C 0,0km/h (0Bft) 0,0km/h 0,0l/m² 62,265klx 0,0min
16:05 26,0°C 25,5% 4,7°C 1006,2hPa 26,0°C 0,0km/h (0Bft) 0,0km/h 0,0l/m² 59,845klx 0,0min
16:00 25,9°C 25,7% 4,7°C 1006,3hPa 25,9°C 0,0km/h (0Bft) 0,0km/h 0,0l/m² 63,123klx 0,0min
15:55 26,0°C 26,5% 5,3°C 1006,3hPa 26,0°C 0,0km/h (0Bft) 0,0km/h 0,0l/m² 67,273klx 0,0min
15:50 25,7°C 27,3% 5,4°C 1006,4hPa 25,7°C 0,0km/h (0Bft) 0,0km/h 0,0l/m² 67,103klx 0,0min
15:45 25,7°C 26,8% 5,1°C 1006,5hPa 25,7°C 0,0km/h (0Bft) 0,0km/h 0,0l/m² 69,263klx 0,0min
15:40 26,1°C 26,8% 5,5°C 1006,6hPa 26,1°C 0,0km/h (0Bft) 0,0km/h 0,0l/m² 70,472klx 0,0min
15:35 25,9°C 26,6% 5,2°C 1006,6hPa 25,9°C 0,0km/h (0Bft) 0,0km/h 0,0l/m² 69,298klx 0,0min
15:30 25,9°C 27,4% 5,7°C 1006,6hPa 25,9°C 0,0km/h (0Bft) 0,0km/h 0,0l/m² 71,230klx 0,0min
15:25 25,8°C 27,3% 5,5°C 1006,7hPa 25,8°C 0,0km/h (0Bft) 0,0km/h 0,0l/m² 72,356klx 0,0min
15:20 25,7°C 27,7% 5,7°C 1006,8hPa 25,7°C 0,0km/h (0Bft) 0,0km/h 0,0l/m² 71,127klx 0,0min
15:15 25,6°C 26,9% 5,2°C 1006,9hPa 25,6°C 0,0km/h (0Bft) 0,0km/h 0,0l/m² 70,368klx 0,0min
15:10 26,0°C 26,9% 5,5°C 1006,9hPa 26,0°C 0,0km/h (0Bft) 0,0km/h 0,0l/m² 72,443klx 0,0min
15:05 26,0°C 26,9% 5,5°C 1007,0hPa 26,0°C 0,0km/h (0Bft) 0,0km/h 0,0l/m² 72,438klx 0,0min
15:00 25,9°C 27,2% 5,6°C 1007,0hPa 25,9°C 0,0km/h (0Bft) 0,0km/h 0,0l/m² 73,870klx 0,0min
14:55 25,8°C 28,1% 5,9°C 1007,1hPa 25,8°C 0,0km/h (0Bft) 0,0km/h 0,0l/m² 73,370klx 0,0min
14:50 25,8°C 27,4% 5,6°C 1007,2hPa 25,8°C 0,0km/h (0Bft) 0,0km/h 0,0l/m² 73,629klx 0,0min
14:45 25,9°C 27,0% 5,5°C 1007,2hPa 25,9°C 0,0km/h (0Bft) 0,0km/h 0,0l/m² 72,011klx 0,0min
14:40 25,9°C 26,5% 5,2°C 1007,3hPa 25,9°C 0,0km/h (0Bft) 0,0km/h 0,0l/m² 72,208klx 0,0min
14:35 26,0°C 25,9% 4,9°C 1007,4hPa 26,0°C 0,0km/h (0Bft) 0,0km/h 0,0l/m² 76,988klx 0,0min
14:30 26,0°C 23,1% 3,3°C 1007,5hPa 26,0°C 0,0km/h (0Bft) 0,0km/h 0,0l/m² 78,017klx 0,0min
14:25 26,1°C 22,9% 3,3°C 1007,6hPa 26,1°C 0,0km/h (0Bft) 0,0km/h 0,0l/m² 75,614klx 0,0min
14:20 25,9°C 23,5% 3,5°C 1007,6hPa 25,9°C 0,0km/h (0Bft) 0,0km/h 0,0l/m² 79,886klx 0,0min
14:15 25,9°C 23,5% 3,5°C 1007,8hPa 25,9°C 0,0km/h (0Bft) 0,0km/h 0,0l/m² 80,317klx 0,0min
14:10 25,7°C 23,6% 3,3°C 1007,9hPa 25,7°C 0,0km/h (0Bft) 0,0km/h 0,0l/m² 77,310klx 0,0min
14:05 25,9°C 24,0% 3,8°C 1007,9hPa 25,9°C 0,0km/h (0Bft) 0,0km/h 0,0l/m² 80,774klx 0,0min
14:00 25,6°C 24,3% 3,7°C 1008,0hPa 25,6°C 0,0km/h (0Bft) 0,0km/h 0,0l/m² 84,488klx 0,0min
13:55 25,6°C 24,7% 3,9°C 1008,0hPa 25,6°C 0,0km/h (0Bft) 0,0km/h 0,0l/m² 87,926klx 0,0min
13:50 25,3°C 25,0% 3,9°C 1008,1hPa 25,3°C 0,0km/h (0Bft) 0,0km/h 0,0l/m² 88,771klx 0,0min
13:45 25,2°C 24,1% 3,3°C 1008,2hPa 25,2°C 0,0km/h (0Bft) 0,0km/h 0,0l/m² 86,722klx 0,0min
13:40 25,4°C 24,0% 3,3°C 1008,2hPa 25,4°C 0,0km/h (0Bft) 0,0km/h 0,0l/m² 91,593klx 0,0min
13:35 25,3°C 23,8% 3,1°C 1008,3hPa 25,3°C 0,0km/h (0Bft) 0,0km/h 0,0l/m² 92,443klx 0,0min
13:30 25,3°C 23,5% 3,0°C 1008,4hPa 25,3°C 0,0km/h (0Bft) 0,0km/h 0,0l/m² 91,726klx 0,0min
13:25 25,4°C 23,1% 2,8°C 1008,5hPa 25,4°C 0,0km/h (0Bft) 0,0km/h 0,0l/m² 88,537klx 0,0min
13:20 25,4°C 24,0% 3,3°C 1008,6hPa 25,4°C 0,0km/h (0Bft) 0,0km/h 0,0l/m² 85,259klx 0,0min
13:15 25,6°C 24,6% 3,9°C 1008,6hPa 25,6°C 0,0km/h (0Bft) 0,0km/h 0,0l/m² 86,209klx 0,0min
13:10 25,3°C 25,2% 3,9°C 1008,7hPa 25,3°C 0,0km/h (0Bft) 0,0km/h 0,0l/m² 91,206klx 0,0min
13:05 25,2°C 24,9% 3,7°C 1008,8hPa 25,2°C 0,0km/h (0Bft) 0,0km/h 0,0l/m² 89,248klx 0,0min
13:00 25,2°C 24,6% 3,5°C 1008,9hPa 25,2°C 0,0km/h (0Bft) 0,0km/h 0,0l/m² 88,934klx 0,0min
12:55 25,0°C 24,5% 3,3°C 1009,0hPa 25,0°C 0,0km/h (0Bft) 0,0km/h 0,0l/m² 88,387klx 0,0min
12:50 25,3°C 25,2% 4,0°C 1009,1hPa 25,3°C 0,0km/h (0Bft) 0,0km/h 0,0l/m² 89,469klx 0,0min
12:45 25,0°C 25,0% 3,6°C 1009,2hPa 25,0°C 0,0km/h (0Bft) 0,0km/h 0,0l/m² 87,720klx 0,0min
12:40 25,0°C 25,1% 3,7°C 1009,2hPa 25,0°C 0,0km/h (0Bft) 0,0km/h 0,0l/m² 89,793klx 0,0min
12:35 25,2°C 25,2% 3,9°C 1009,4hPa 25,2°C 0,0km/h (0Bft) 0,0km/h 0,0l/m² 89,006klx 0,0min
12:30 24,8°C 25,9% 4,0°C 1009,4hPa 24,8°C 0,0km/h (0Bft) 0,0km/h 0,0l/m² 84,104klx 0,0min
12:25 24,6°C 25,4% 3,5°C 1009,5hPa 24,6°C 0,0km/h (0Bft) 0,0km/h 0,0l/m² 90,053klx 0,0min
12:20 24,6°C 25,1% 3,2°C 1009,6hPa 24,6°C 0,0km/h (0Bft) 0,0km/h 0,0l/m² 90,888klx 0,0min
12:15 24,6°C 25,2% 3,3°C 1009,6hPa 24,6°C 0,0km/h (0Bft) 0,0km/h 0,0l/m² 85,983klx 0,0min
12:10 24,5°C 24,8% 3,0°C 1009,7hPa 24,5°C 0,0km/h (0Bft) 0,0km/h 0,0l/m² 83,544klx 0,0min
12:05 24,6°C 24,6% 3,0°C 1009,8hPa 24,6°C 0,0km/h (0Bft) 0,0km/h 0,0l/m² 82,408klx 0,0min
12:00 24,7°C 25,2% 3,5°C 1009,8hPa 24,7°C 0,0km/h (0Bft) 0,0km/h 0,0l/m² 82,521klx 0,0min
11:55 24,4°C 25,1% 3,2°C 1009,9hPa 24,4°C 0,0km/h (0Bft) 0,0km/h 0,0l/m² 80,185klx 0,0min
11:50 24,6°C 25,2% 3,3°C 1010,0hPa 24,6°C 0,0km/h (0Bft) 0,0km/h 0,0l/m² 79,247klx 0,0min
11:45 24,3°C 25,5% 3,2°C 1010,1hPa 24,3°C 0,0km/h (0Bft) 0,0km/h 0,0l/m² 80,926klx 0,0min
11:40 24,3°C 25,9% 3,5°C 1010,2hPa 24,3°C 0,0km/h (0Bft) 0,0km/h 0,0l/m² 77,755klx 0,0min
11:35 24,1°C 25,5% 3,1°C 1010,2hPa 24,1°C 0,0km/h (0Bft) 0,0km/h 0,0l/m² 74,893klx 0,0min
11:30 24,3°C 25,9% 3,5°C 1010,3hPa 24,3°C 0,0km/h (0Bft) 0,0km/h 0,0l/m² 73,726klx 0,0min
11:25 24,2°C 26,4% 3,7°C 1010,3hPa 24,2°C 0,0km/h (0Bft) 0,0km/h 0,0l/m² 69,241klx 0,0min
11:20 24,2°C 26,3% 3,7°C 1010,3hPa 24,2°C 0,0km/h (0Bft) 0,0km/h 0,0l/m² 75,907klx 0,0min
11:15 24,2°C 26,9% 3,9°C 1010,3hPa 24,2°C 0,0km/h (0Bft) 0,0km/h 0,0l/m² 72,357klx 0,0min
11:10 23,8°C 28,5% 4,4°C 1010,3hPa 23,8°C 0,0km/h (0Bft) 0,0km/h 0,0l/m² 72,804klx 0,0min
11:05 23,6°C 27,7% 3,9°C 1010,4hPa 23,6°C 0,0km/h (0Bft) 0,0km/h 0,0l/m² 69,321klx 0,0min
11:00 23,6°C 28,3% 4,2°C 1010,5hPa 23,6°C 0,0km/h (0Bft) 0,0km/h 0,0l/m² 67,173klx 0,0min
10:55 23,5°C 29,1% 4,5°C 1010,5hPa 23,5°C 0,0km/h (0Bft) 0,0km/h 0,0l/m² 62,076klx 0,0min
10:50 23,2°C 30,8% 5,0°C 1010,6hPa 23,2°C 0,0km/h (0Bft) 0,0km/h 0,0l/m² 62,240klx 0,0min
10:45 23,0°C 32,3% 5,5°C 1010,7hPa 23,0°C 0,0km/h (0Bft) 0,0km/h 0,0l/m² 63,670klx 0,0min
10:40 22,5°C 33,2% 5,5°C 1010,7hPa 22,5°C 0,0km/h (0Bft) 0,0km/h 0,0l/m² 62,649klx 0,0min
10:35 22,2°C 34,2% 5,7°C 1010,7hPa 22,2°C 0,0km/h (0Bft) 0,0km/h 0,0l/m² 61,646klx 0,0min
10:30 21,9°C 35,4% 5,9°C 1010,8hPa 21,9°C 0,0km/h (0Bft) 0,0km/h 0,0l/m² 55,086klx 0,0min
10:25 21,7°C 36,4% 6,1°C 1010,8hPa 21,7°C 0,0km/h (0Bft) 0,0km/h 0,0l/m² 52,154klx 0,0min
10:20 21,4°C 37,0% 6,1°C 1010,8hPa 21,4°C 0,0km/h (0Bft) 0,0km/h 0,0l/m² 54,634klx 0,0min
10:15 20,1°C 45,6% 8,0°C 1010,9hPa 20,1°C 0,0km/h (0Bft) 0,0km/h 0,0l/m² 51,170klx 0,0min
10:10 19,7°C 47,2% 8,1°C 1010,9hPa 19,7°C 0,0km/h (0Bft) 0,0km/h 0,0l/m² 49,395klx 0,0min
10:05 19,3°C 49,7% 8,5°C 1011,0hPa 19,3°C 0,0km/h (0Bft) 0,0km/h 0,0l/m² 48,747klx 0,0min
10:00 19,0°C 52,2% 8,9°C 1011,0hPa 19,0°C 0,0km/h (0Bft) 0,0km/h 0,0l/m² 48,640klx 0,0min
09:55 18,5°C 52,8% 8,7°C 1011,1hPa 18,5°C 0,0km/h (0Bft) 0,0km/h 0,0l/m² 48,114klx 0,0min
09:50 18,1°C 54,4% 8,7°C 1011,1hPa 18,1°C 0,0km/h (0Bft) 0,0km/h 0,0l/m² 47,827klx 0,0min
09:45 17,7°C 56,8% 9,0°C 1011,1hPa 17,7°C 0,0km/h (0Bft) 0,0km/h 0,0l/m² 45,207klx 0,0min
09:40 17,0°C 60,8% 9,3°C 1011,1hPa 17,0°C 0,0km/h (0Bft) 0,0km/h 0,0l/m² 40,339klx 0,0min
09:35 16,5°C 64,3% 9,7°C 1011,1hPa 16,5°C 0,0km/h (0Bft) 0,0km/h 0,0l/m² 37,517klx 0,0min
09:30 16,0°C 65,0% 9,4°C 1011,2hPa 16,0°C 0,0km/h (0Bft) 0,0km/h 0,0l/m² 23,982klx 0,0min
09:25 16,0°C 62,9% 8,9°C 1011,1hPa 16,0°C 0,0km/h (0Bft) 0,0km/h 0,0l/m² 17,629klx 0,0min
09:20 16,1°C 62,3% 8,9°C 1011,2hPa 16,1°C 0,0km/h (0Bft) 0,0km/h 0,0l/m² 32,914klx 0,0min
09:15 15,6°C 63,4% 8,7°C 1011,2hPa 15,6°C 0,0km/h (0Bft) 0,0km/h 0,0l/m² 36,333klx 0,0min
09:10 15,2°C 64,2% 8,5°C 1011,2hPa 15,2°C 0,0km/h (0Bft) 0,0km/h 0,0l/m² 35,186klx 0,0min
09:05 14,8°C 64,7% 8,2°C 1011,3hPa 14,8°C 0,0km/h (0Bft) 0,0km/h 0,0l/m² 34,821klx 0,0min
09:00 14,3°C 65,8% 8,0°C 1011,3hPa 14,3°C 0,0km/h (0Bft) 0,0km/h 0,0l/m² 32,735klx 0,0min
08:55 13,9°C 68,0% 8,0°C 1011,3hPa 13,9°C 0,0km/h (0Bft) 0,0km/h 0,0l/m² 30,241klx 0,0min
08:50 13,4°C 69,6% 7,9°C 1011,3hPa 13,4°C 0,0km/h (0Bft) 0,0km/h 0,0l/m² 28,285klx 0,0min
08:45 12,8°C 73,1% 8,1°C 1011,3hPa 12,8°C 0,0km/h (0Bft) 0,0km/h 0,0l/m² 26,666klx 0,0min
08:40 12,4°C 74,7% 8,0°C 1011,3hPa 12,4°C 0,0km/h (0Bft) 0,0km/h 0,0l/m² 24,692klx 0,0min
08:35 12,0°C 75,6% 7,8°C 1011,3hPa 12,0°C 0,0km/h (0Bft) 0,0km/h 0,0l/m² 24,088klx 0,0min
08:30 11,6°C 77,3% 7,8°C 1011,3hPa 11,6°C 0,0km/h (0Bft) 0,0km/h 0,0l/m² 20,762klx 0,0min
08:25 11,3°C 78,3% 7,6°C 1011,3hPa 11,3°C 0,0km/h (0Bft) 0,0km/h 0,0l/m² 18,592klx 0,0min
08:20 10,9°C 80,0% 7,5°C 1011,4hPa 10,9°C 0,0km/h (0Bft) 0,0km/h 0,0l/m² 17,297klx 0,0min
08:15 10,6°C 80,5% 7,4°C 1011,3hPa 10,6°C 0,0km/h (0Bft) 0,0km/h 0,0l/m² 16,339klx 0,0min
08:10 10,2°C 82,2% 7,3°C 1011,4hPa 10,2°C 0,0km/h (0Bft) 0,0km/h 0,0l/m² 15,353klx 0,0min
08:05 10,0°C 82,6% 7,2°C 1011,4hPa 10,0°C 0,0km/h (0Bft) 0,0km/h 0,0l/m² 14,305klx 0,0min
08:00 9,7°C 84,1% 7,2°C 1011,4hPa 9,7°C 0,0km/h (0Bft) 0,0km/h 0,0l/m² 13,318klx 0,0min
07:55 9,4°C 85,1% 7,0°C 1011,4hPa 9,4°C 0,0km/h (0Bft) 0,0km/h 0,0l/m² 11,643klx 0,0min
07:50 9,2°C 85,6% 6,9°C 1011,5hPa 9,2°C 0,0km/h (0Bft) 0,0km/h 0,0l/m² 7,100klx 0,0min
07:45 9,0°C 86,3% 6,8°C 1011,5hPa 9,0°C 0,0km/h (0Bft) 0,0km/h 0,0l/m² 8,263klx 0,0min
07:40 8,8°C 86,9% 6,7°C 1011,5hPa 8,8°C 0,0km/h (0Bft) 0,0km/h 0,0l/m² 6,270klx 0,0min
07:35 8,7°C 86,5% 6,6°C 1011,5hPa 8,7°C 0,0km/h (0Bft) 0,0km/h 0,0l/m² 5,879klx 0,0min
07:30 8,6°C 86,8% 6,5°C 1011,5hPa 8,6°C 0,0km/h (0Bft) 0,0km/h 0,0l/m² 5,502klx 0,0min
07:25 8,5°C 87,0% 6,4°C 1011,6hPa 8,5°C 0,0km/h (0Bft) 0,0km/h 0,0l/m² 5,105klx 0,0min
07:20 8,4°C 87,3% 6,4°C 1011,6hPa 8,4°C 0,0km/h (0Bft) 0,0km/h 0,0l/m² 4,726klx 0,0min
07:15 8,3°C 87,4% 6,3°C 1011,6hPa 8,3°C 0,0km/h (0Bft) 0,0km/h 0,0l/m² 4,333klx 0,0min
07:10 8,3°C 87,4% 6,3°C 1011,6hPa 8,3°C 0,0km/h (0Bft) 0,0km/h 0,0l/m² 3,928klx 0,0min
07:05 8,2°C 87,5% 6,2°C 1011,6hPa 8,2°C 0,0km/h (0Bft) 0,0km/h 0,0l/m² 3,518klx 0,0min
07:00 8,1°C 87,8% 6,2°C 1011,6hPa 8,1°C 0,0km/h (0Bft) 0,0km/h 0,0l/m² 3,099klx 0,0min
06:55 8,1°C 87,8% 6,2°C 1011,6hPa 8,1°C 0,0km/h (0Bft) 0,0km/h 0,0l/m² 2,667klx 0,0min
06:50 8,1°C 88,0% 6,3°C 1011,6hPa 8,1°C 0,0km/h (0Bft) 0,0km/h 0,0l/m² 2,239klx 0,0min
06:45 8,2°C 88,3% 6,3°C 1011,6hPa 8,2°C 0,0km/h (0Bft) 0,0km/h 0,0l/m² 1,826klx 0,0min
06:40 8,1°C 88,6% 6,3°C 1011,6hPa 8,1°C 0,0km/h (0Bft) 0,0km/h 0,0l/m² 1,442klx 0,0min
06:35 8,1°C 88,4% 6,3°C 1011,6hPa 8,1°C 0,0km/h (0Bft) 0,0km/h 0,0l/m² 1,088klx 0,0min
06:30 8,1°C 88,5% 6,3°C 1011,7hPa 8,1°C 0,0km/h (0Bft) 0,0km/h 0,0l/m² 0,781klx 0,0min
06:25 8,1°C 88,4% 6,3°C 1011,7hPa 8,1°C 0,0km/h (0Bft) 0,0km/h 0,0l/m² 0,525klx 0,0min
06:20 8,1°C 88,5% 6,3°C 1011,7hPa 8,1°C 0,0km/h (0Bft) 0,0km/h 0,0l/m² 0,328klx 0,0min
06:15 8,1°C 88,6% 6,3°C 1011,8hPa 8,1°C 0,0km/h (0Bft) 0,0km/h 0,0l/m² 0,188klx 0,0min
06:10 8,0°C 88,6% 6,2°C 1011,8hPa 8,0°C 0,0km/h (0Bft) 0,0km/h 0,0l/m² 0,099klx 0,0min
06:05 8,1°C 88,3% 6,2°C 1011,8hPa 8,1°C 0,0km/h (0Bft) 0,0km/h 0,0l/m² 0,048klx 0,0min
06:00 8,2°C 88,3% 6,3°C 1011,9hPa 8,2°C 0,0km/h (0Bft) 0,0km/h 0,0l/m² 0,022klx 0,0min
05:55 8,2°C 88,2% 6,3°C 1011,9hPa 8,2°C 0,0km/h (0Bft) 0,0km/h 0,0l/m² 0,010klx 0,0min
05:50 8,2°C 88,1% 6,4°C 1011,9hPa 8,2°C 0,0km/h (0Bft) 0,0km/h 0,0l/m² 0,004klx 0,0min
05:45 8,3°C 88,2% 6,4°C 1011,9hPa 8,3°C 0,0km/h (0Bft) 0,0km/h 0,0l/m² 0,002klx 0,0min
05:40 8,4°C 87,6% 6,4°C 1011,9hPa 8,4°C 0,0km/h (0Bft) 0,0km/h 0,0l/m² 0,001klx 0,0min
05:35 8,4°C 87,1% 6,4°C 1012,0hPa 8,4°C 0,0km/h (0Bft) 0,0km/h 0,0l/m² 0,001klx 0,0min
05:30 8,4°C 87,2% 6,4°C 1012,0hPa 8,4°C 0,0km/h (0Bft) 0,0km/h 0,0l/m² 0,000klx 0,0min
05:25 8,3°C 87,3% 6,3°C 1012,1hPa 8,3°C 0,0km/h (0Bft) 0,0km/h 0,0l/m² 0,000klx 0,0min
05:20 8,4°C 87,1% 6,4°C 1012,1hPa 8,4°C 0,0km/h (0Bft) 0,0km/h 0,0l/m² 0,000klx 0,0min
05:15 8,4°C 87,1% 6,4°C 1012,2hPa 8,4°C 0,0km/h (0Bft) 0,0km/h 0,0l/m² 0,000klx 0,0min
05:10 8,5°C 86,8% 6,4°C 1012,3hPa 8,5°C 0,0km/h (0Bft) 0,0km/h 0,0l/m² 0,000klx 0,0min
05:05 8,4°C 86,9% 6,4°C 1012,3hPa 8,4°C 0,0km/h (0Bft) 0,0km/h 0,0l/m² 0,000klx 0,0min
05:00 8,4°C 87,0% 6,4°C 1012,3hPa 8,4°C 0,0km/h (0Bft) 0,0km/h 0,0l/m² 0,000klx 0,0min
04:55 8,6°C 86,5% 6,4°C 1012,4hPa 8,6°C 0,0km/h (0Bft) 0,0km/h 0,0l/m² 0,000klx 0,0min
04:50 8,5°C 86,6% 6,4°C 1012,4hPa 8,5°C 0,0km/h (0Bft) 0,0km/h 0,0l/m² 0,000klx 0,0min
04:45 8,5°C 86,6% 6,4°C 1012,5hPa 8,5°C 0,0km/h (0Bft) 0,0km/h 0,0l/m² 0,000klx 0,0min
04:40 8,6°C 86,8% 6,5°C 1012,5hPa 8,6°C 0,0km/h (0Bft) 0,0km/h 0,0l/m² 0,000klx 0,0min
04:35 8,6°C 87,1% 6,5°C 1012,5hPa 8,6°C 0,0km/h (0Bft) 0,0km/h 0,0l/m² 0,000klx 0,0min
04:30 8,6°C 87,0% 6,6°C 1012,5hPa 8,6°C 0,0km/h (0Bft) 0,0km/h 0,0l/m² 0,000klx 0,0min
04:25 8,6°C 87,2% 6,6°C 1012,5hPa 8,6°C 0,0km/h (0Bft) 0,0km/h 0,0l/m² 0,000klx 0,0min
04:20 8,7°C 86,6% 6,6°C 1012,6hPa 8,7°C 0,0km/h (0Bft) 0,0km/h 0,0l/m² 0,000klx 0,0min
04:15 8,7°C 86,8% 6,6°C 1012,6hPa 8,7°C 0,0km/h (0Bft) 0,0km/h 0,0l/m² 0,000klx 0,0min
04:10 8,8°C 86,3% 6,6°C 1012,7hPa 8,8°C 0,0km/h (0Bft) 0,0km/h 0,0l/m² 0,000klx 0,0min
04:05 8,9°C 85,6% 6,6°C 1012,7hPa 8,9°C 0,0km/h (0Bft) 0,0km/h 0,0l/m² 0,000klx 0,0min
04:00 9,0°C 85,0% 6,6°C 1012,8hPa 9,0°C 0,0km/h (0Bft) 0,0km/h 0,0l/m² 0,000klx 0,0min
03:55 9,0°C 84,9% 6,6°C 1012,9hPa 9,0°C 0,0km/h (0Bft) 0,0km/h 0,0l/m² 0,000klx 0,0min
03:50 9,1°C 84,8% 6,6°C 1012,9hPa 9,1°C 0,0km/h (0Bft) 0,0km/h 0,0l/m² 0,000klx 0,0min
03:45 9,1°C 84,7% 6,7°C 1012,9hPa 9,1°C 0,0km/h (0Bft) 0,0km/h 0,0l/m² 0,000klx 0,0min
03:40 9,1°C 84,6% 6,7°C 1012,9hPa 9,1°C 0,0km/h (0Bft) 0,0km/h 0,0l/m² 0,000klx 0,0min
03:35 9,2°C 84,4% 6,7°C 1013,0hPa 9,2°C 0,0km/h (0Bft) 0,0km/h 0,0l/m² 0,000klx 0,0min
03:30 9,4°C 84,2% 6,8°C 1013,0hPa 9,4°C 0,0km/h (0Bft) 0,0km/h 0,0l/m² 0,000klx 0,0min
03:25 9,4°C 84,0% 6,9°C 1013,1hPa 9,4°C 0,0km/h (0Bft) 0,0km/h 0,0l/m² 0,000klx 0,0min
03:20 9,3°C 84,9% 6,9°C 1013,2hPa 9,3°C 0,0km/h (0Bft) 0,0km/h 0,0l/m² 0,000klx 0,0min
03:15 9,4°C 85,3% 7,0°C 1013,3hPa 9,4°C 0,0km/h (0Bft) 0,0km/h 0,0l/m² 0,000klx 0,0min
03:10 9,2°C 86,5% 7,1°C 1013,3hPa 9,2°C 0,0km/h (0Bft) 0,0km/h 0,0l/m² 0,000klx 0,0min
03:05 9,4°C 85,1% 7,0°C 1013,4hPa 9,4°C 0,0km/h (0Bft) 0,0km/h 0,0l/m² 0,000klx 0,0min
03:00 9,5°C 84,3% 7,0°C 1013,4hPa 9,5°C 0,0km/h (0Bft) 0,0km/h 0,0l/m² 0,000klx 0,0min
02:55 9,6°C 83,0% 6,9°C 1013,4hPa 9,6°C 0,0km/h (0Bft) 0,0km/h 0,0l/m² 0,000klx 0,0min
02:50 9,8°C 82,6% 7,0°C 1013,5hPa 9,8°C 0,0km/h (0Bft) 0,0km/h 0,0l/m² 0,000klx 0,0min
02:45 10,0°C 80,5% 6,8°C 1013,5hPa 10,0°C 0,0km/h (0Bft) 0,0km/h 0,0l/m² 0,000klx 0,0min
02:40 10,1°C 80,6% 6,9°C 1013,5hPa 10,1°C 0,0km/h (0Bft) 0,0km/h 0,0l/m² 0,000klx 0,0min
02:35 10,3°C 79,2% 6,9°C 1013,5hPa 10,3°C 0,0km/h (0Bft) 0,0km/h 0,0l/m² 0,000klx 0,0min
02:30 10,4°C 79,2% 7,0°C 1013,6hPa 10,4°C 0,0km/h (0Bft) 0,0km/h 0,0l/m² 0,000klx 0,0min
02:25 10,1°C 82,7% 7,3°C 1013,6hPa 10,1°C 0,0km/h (0Bft) 0,0km/h 0,0l/m² 0,000klx 0,0min
02:20 10,1°C 84,4% 7,6°C 1013,7hPa 10,1°C 0,0km/h (0Bft) 0,0km/h 0,0l/m² 0,000klx 0,0min
02:15 10,1°C 84,5% 7,6°C 1013,7hPa 10,1°C 0,0km/h (0Bft) 0,0km/h 0,0l/m² 0,000klx 0,0min
02:10 10,1°C 85,9% 7,8°C 1013,8hPa 10,1°C 0,0km/h (0Bft) 0,0km/h 0,0l/m² 0,000klx 0,0min
02:05 10,1°C 85,7% 7,8°C 1013,8hPa 10,1°C 0,0km/h (0Bft) 0,0km/h 0,0l/m² 0,000klx 0,0min
02:00 10,1°C 85,6% 7,8°C 1013,9hPa 10,1°C 0,0km/h (0Bft) 0,0km/h 0,0l/m² 0,000klx 0,0min
01:55 10,3°C 83,9% 7,7°C 1013,9hPa 10,3°C 0,0km/h (0Bft) 0,0km/h 0,0l/m² 0,000klx 0,0min
01:50 10,8°C 79,7% 7,4°C 1014,0hPa 10,8°C 0,0km/h (0Bft) 0,0km/h 0,0l/m² 0,000klx 0,0min
01:45 11,2°C 77,5% 7,4°C 1014,0hPa 11,2°C 0,0km/h (0Bft) 0,0km/h 0,0l/m² 0,000klx 0,0min
01:40 11,3°C 77,0% 7,4°C 1014,0hPa 11,3°C 0,0km/h (0Bft) 0,0km/h 0,0l/m² 0,000klx 0,0min
01:35 11,3°C 76,8% 7,4°C 1014,1hPa 11,3°C 0,0km/h (0Bft) 0,0km/h 0,0l/m² 0,000klx 0,0min
01:30 11,1°C 78,8% 7,6°C 1014,2hPa 11,1°C 0,0km/h (0Bft) 0,0km/h 0,0l/m² 0,000klx 0,0min
01:25 11,1°C 79,6% 7,7°C 1014,2hPa 11,1°C 0,0km/h (0Bft) 0,0km/h 0,0l/m² 0,000klx 0,0min
01:20 11,2°C 79,8% 7,8°C 1014,2hPa 11,2°C 0,0km/h (0Bft) 0,0km/h 0,0l/m² 0,000klx 0,0min
01:15 10,9°C 80,6% 7,7°C 1014,3hPa 10,9°C 0,0km/h (0Bft) 0,0km/h 0,0l/m² 0,000klx 0,0min
01:10 10,8°C 81,1% 7,7°C 1014,3hPa 10,8°C 0,0km/h (0Bft) 0,0km/h 0,0l/m² 0,000klx 0,0min
01:05 10,9°C 80,8% 7,8°C 1014,3hPa 10,9°C 0,0km/h (0Bft) 0,0km/h 0,0l/m² 0,000klx 0,0min
01:00 10,8°C 81,9% 7,8°C 1014,4hPa 10,8°C 0,0km/h (0Bft) 0,0km/h 0,0l/m² 0,000klx 0,0min
00:55 11,0°C 81,9% 8,0°C 1014,4hPa 11,0°C 0,0km/h (0Bft) 0,0km/h 0,0l/m² 0,000klx 0,0min
00:50 11,1°C 81,0% 8,0°C 1014,4hPa 11,1°C 0,0km/h (0Bft) 0,0km/h 0,0l/m² 0,000klx 0,0min
00:45 11,5°C 78,0% 7,8°C 1014,4hPa 11,5°C 0,0km/h (0Bft) 0,0km/h 0,0l/m² 0,000klx 0,0min
00:40 11,8°C 76,4% 7,8°C 1014,4hPa 11,8°C 0,0km/h (0Bft) 0,0km/h 0,0l/m² 0,000klx 0,0min
00:35 12,2°C 74,6% 7,8°C 1014,4hPa 12,2°C 0,0km/h (0Bft) 0,0km/h 0,0l/m² 0,000klx 0,0min
00:30 12,3°C 73,9% 7,8°C 1014,4hPa 12,3°C 0,0km/h (0Bft) 0,0km/h 0,0l/m² 0,000klx 0,0min
00:25 11,9°C 75,6% 7,7°C 1014,4hPa 11,9°C 0,0km/h (0Bft) 0,0km/h 0,0l/m² 0,000klx 0,0min
00:20 12,1°C 76,1% 8,0°C 1014,5hPa 12,1°C 0,0km/h (0Bft) 0,0km/h 0,0l/m² 0,000klx 0,0min
00:15 12,0°C 76,6% 8,0°C 1014,5hPa 12,0°C 0,0km/h (0Bft) 0,0km/h 0,0l/m² 0,000klx 0,0min
00:10 12,2°C 74,3% 7,8°C 1014,5hPa 12,2°C 0,0km/h (0Bft) 0,0km/h 0,0l/m² 0,000klx 0,0min
00:05 12,4°C 72,8% 7,6°C 1014,5hPa 12,4°C 0,0km/h (0Bft) 0,0km/h 0,0l/m² 0,000klx 0,0min
00:00 12,6°C 71,2% 7,5°C 1014,5hPa 12,6°C 0,0km/h (0Bft) 0,0km/h 0,0l/m² 0,000klx 0,0min

Aktuelle Wetterdaten

22.04.2019 20:30 Uhr